Time;durP1;ratioP1;P1;durP2;ratioP2;P2;SDS_P1;SDS_P2;PMS_P1;PMS_P2;Temp;Humidity;BMP_temperature;BMP_pressure;BME280_temperature;BME280_humidity;BME280_pressure;Samples;Min_cycle;Max_cycle;Signal;HPM_P1;HPM_P2
2023/01/24 00:05:41;;;;;;;60.90;28.90;;;;;;;0.66;100.00;102867.41;216800;1299;138766;-88
2023/01/24 00:11:42;;;;;;;60.90;29.20;;;;;;;0.67;100.00;102862.66;216245;1299;139253;-87
2023/01/24 00:17:43;;;;;;;59.80;28.20;;;;;;;0.65;100.00;102870.33;216862;1299;138770;-87
2023/01/24 00:23:42;;;;;;;;;;;;;;;;;;;;;
2023/01/24 00:29:37;;;;;;;;;;;;;;;;;;;;;
2023/01/24 00:35:46;;;;;;;57.20;27.20;;;;;;;0.64;100.00;102865.53;216808;1299;138720;-88
2023/01/24 00:41:38;;;;;;;;;;;;;;;;;;;;;
2023/01/24 00:47:48;;;;;;;55.70;27.20;;;;;;;0.62;100.00;102876.67;216740;1300;139043;-87
2023/01/24 00:53:49;;;;;;;55.20;27.80;;;;;;;0.63;100.00;102876.96;216330;1298;139480;-88
2023/01/24 00:59:49;;;;;;;;;;;;;;;;;;;;;
2023/01/24 01:05:52;;;;;;;53.70;25.00;;;;;;;0.65;100.00;102875.20;216729;1299;139212;-90
2023/01/24 01:11:41;;;;;;;55.60;26.20;;;;;;;0.66;100.00;102878.31;216348;1298;139316;-88
2023/01/24 01:17:37;;;;;;;54.00;25.60;;;;;;;0.65;100.00;102872.54;216686;1298;138784;-88
2023/01/24 01:23:38;;;;;;;52.60;25.60;;;;;;;0.65;100.00;102873.26;216318;1298;139201;-88
2023/01/24 01:29:40;;;;;;;52.10;24.60;;;;;;;0.64;100.00;102871.73;216159;1299;139040;-89
2023/01/24 01:35:32;;;;;;;;;;;;;;;;;;;;;
2023/01/24 01:41:42;;;;;;;49.70;24.30;;;;;;;0.65;100.00;102868.58;216272;1298;139406;-89
2023/01/24 01:47:43;;;;;;;53.30;25.00;;;;;;;0.68;100.00;102870.64;216810;1298;139030;-87
2023/01/24 01:53:44;;;;;;;49.20;24.60;;;;;;;0.64;100.00;102868.63;216342;1298;139085;-88
2023/01/24 01:59:48;;;;;;;53.50;25.70;;;;;;;0.63;100.00;102863.91;216137;1298;139316;-88
2023/01/24 02:05:50;;;;;;;53.10;25.30;;;;;;;0.64;100.00;102861.59;216617;1298;139397;-88
2023/01/24 02:18:01;;;;;;;45.00;22.60;;;;;;;0.63;100.00;102862.13;216712;1299;138934;-87
2023/01/24 02:24:10;;;;;;;62.70;26.70;;;;;;;0.61;100.00;102868.23;216465;1299;139614;-87
2023/01/24 02:30:12;;;;;;;48.70;23.70;;;;;;;0.59;100.00;102873.63;216410;1299;138934;-88
2023/01/24 02:36:29;;;;;;;;;;;;;;;;;;;;;
2023/01/24 02:42:34;;;;;;;50.80;22.30;;;;;;;0.57;100.00;102854.67;214922;1307;139098;-89
2023/01/24 02:48:30;;;;;;;48.00;22.30;;;;;;;0.56;100.00;102856.77;215394;1307;96193;-89
2023/01/24 02:54:29;;;;;;;;;;;;;;;;;;;;;
2023/01/24 03:00:33;;;;;;;50.50;24.90;;;;;;;0.57;100.00;102864.42;216251;1299;139178;-88
2023/01/24 03:06:33;;;;;;;52.10;22.40;;;;;;;0.57;100.00;102872.98;216840;1299;139641;-88
2023/01/24 03:36:34;;;;;;;54.30;23.70;;;;;;;0.54;100.00;102887.16;216852;1299;138500;-89
2023/01/24 03:42:46;;;;;;;51.60;23.10;;;;;;;0.53;100.00;102889.40;216402;1301;138849;-89
2023/01/24 03:48:37;;;;;;;48.50;23.20;;;;;;;0.49;100.00;102885.28;216905;1298;96723;-88
2023/01/24 03:54:37;;;;;;;52.90;22.30;;;;;;;0.49;100.00;102884.58;216514;1299;138477;-88
2023/01/24 04:00:36;;;;;;;;;;;;;;;;;;;;;
2023/01/24 04:06:38;;;;;;;44.50;23.90;;;;;;;0.45;100.00;102878.78;216284;1299;139613;-89
2023/01/24 04:12:39;;;;;;;47.50;22.70;;;;;;;0.47;100.00;102875.23;216260;1298;138962;-89
2023/01/24 04:18:41;;;;;;;50.00;22.30;;;;;;;0.46;100.00;102871.95;216926;1299;95935;-88
2023/01/24 04:24:30;;;;;;;45.00;20.90;;;;;;;0.47;100.00;102867.76;216782;1299;138305;-86
2023/01/24 04:30:32;;;;;;;47.00;22.40;;;;;;;0.52;100.00;102862.95;216092;1299;139600;-88
2023/01/24 04:36:33;;;;;;;47.40;20.20;;;;;;;0.51;100.00;102860.71;216797;1299;138939;-87
2023/01/24 04:42:34;;;;;;;44.80;20.10;;;;;;;0.53;100.00;102853.31;216308;1298;138923;-87
2023/01/24 04:48:36;;;;;;;45.90;19.90;;;;;;;0.53;100.00;102852.13;216696;1298;138587;-89
2023/01/24 04:54:37;;;;;;;37.10;17.00;;;;;;;0.57;100.00;102851.22;216512;1299;138902;-86
2023/01/24 05:00:39;;;;;;;35.80;17.20;;;;;;;0.54;100.00;102849.48;216258;1298;139396;-88
2023/01/24 05:06:31;;;;;;;;;;;;;;;;;;;;;
2023/01/24 05:12:39;;;;;;;;;;;;;;;;;;;;;
2023/01/24 05:18:45;;;;;;;37.50;19.00;;;;;;;0.46;100.00;102865.48;216710;1298;138610;-86
2023/01/24 05:24:49;;;;;;;37.90;16.40;;;;;;;0.44;100.00;102872.27;216889;1299;112080;-89
2023/01/24 05:30:51;;;;;;;34.60;15.70;;;;;;;0.44;100.00;102880.23;216374;1299;139618;-87
2023/01/24 05:37:02;;;;;;;38.60;15.90;;;;;;;0.47;100.00;102894.90;216610;1299;138946;-87
2023/01/24 05:43:03;;;;;;;27.40;14.00;;;;;;;0.43;100.00;102892.79;216205;1299;140078;-87
2023/01/24 05:49:04;;;;;;;35.90;17.00;;;;;;;0.44;100.00;102890.48;216183;1298;138665;-88
2023/01/24 05:55:05;;;;;;;39.30;18.70;;;;;;;0.48;100.00;102893.08;216782;1299;111935;-88
2023/01/24 06:00:58;;;;;;;;;;;;;;;;;;;;;
2023/01/24 06:07:06;;;;;;;;;;;;;;;;;;;;;
2023/01/24 06:13:08;;;;;;;38.60;18.00;;;;;;;0.49;100.00;102905.73;216123;1299;139443;-88
2023/01/24 06:30:57;;;;;;;;;;;;;;;;;;;;;
2023/01/24 06:36:59;;;;;;;38.80;18.70;;;;;;;0.53;100.00;102927.66;216698;1299;139257;-84
2023/01/24 06:49:13;;;;;;;38.50;18.50;;;;;;;0.53;100.00;102936.33;215916;1299;138993;-84
2023/01/24 06:55:14;;;;;;;40.70;21.20;;;;;;;0.53;100.00;102943.70;216410;1298;141490;-82
2023/01/24 07:01:15;;;;;;;40.20;20.00;;;;;;;0.56;100.00;102950.85;216045;1299;139307;-82
2023/01/24 07:07:16;;;;;;;41.40;20.30;;;;;;;0.59;100.00;102948.34;216832;1299;107304;-84
2023/01/24 07:13:17;;;;;;;41.20;21.10;;;;;;;0.59;100.00;102945.62;216008;1298;139280;-83
2023/01/24 07:19:11;;;;;;;;;;;;;;;;;;;;;
2023/01/24 07:25:21;;;;;;;44.00;21.90;;;;;;;0.50;100.00;102963.21;216736;1299;139791;-85
2023/01/24 07:31:21;;;;;;;70.70;29.50;;;;;;;0.49;100.00;102963.20;216202;1299;139072;-84
2023/01/24 07:37:20;;;;;;;;;;;;;;;;;;;;;
2023/01/24 07:43:24;;;;;;;41.30;19.40;;;;;;;0.48;100.00;102977.44;216184;1299;139448;-84
2023/01/24 07:49:25;;;;;;;46.70;22.30;;;;;;;0.48;100.00;102975.23;216088;1302;139144;-84
2023/01/24 07:55:26;;;;;;;42.60;19.60;;;;;;;0.53;100.00;102972.09;216636;1300;241782;-82
2023/01/24 08:01:25;;;;;;;;;;;;;;;;;;;;;
2023/01/24 08:19:10;;;;;;;;;;;;;;;;;;;;;
2023/01/24 08:25:20;;;;;;;37.30;18.20;;;;;;;0.60;100.00;102969.23;216493;1302;138714;-84
2023/01/24 08:31:13;;;;;;;;;;;;;;;;;;;;;
2023/01/24 08:37:15;;;;;;;42.80;21.30;;;;;;;0.67;100.00;102972.04;216565;1298;138797;-83
2023/01/24 08:43:17;;;;;;;41.50;19.90;;;;;;;0.81;100.00;102969.46;216102;1302;139454;-83
2023/01/24 08:49:09;;;;;;;;;;;;;;;;;;;;;
2023/01/24 08:55:18;;;;;;;37.60;19.40;;;;;;;0.92;100.00;102970.49;216553;1299;139593;-83
2023/01/24 09:01:20;;;;;;;42.00;19.40;;;;;;;0.93;100.00;102973.50;216020;1299;139422;-84
2023/01/24 09:07:04;;;;;;;36.90;18.40;;;;;;;1.00;100.00;102978.45;216636;1298;139001;-83
2023/01/24 09:13:06;;;;;;;46.60;19.20;;;;;;;1.04;100.00;102987.35;215990;1298;138952;-84
2023/01/24 09:19:08;;;;;;;39.70;20.40;;;;;;;1.09;100.00;102982.86;216028;1299;139646;-83
2023/01/24 09:25:09;;;;;;;40.90;19.60;;;;;;;1.12;100.00;102986.24;216533;1299;138972;-84
2023/01/24 09:31:12;;;;;;;41.20;20.50;;;;;;;1.11;100.00;102994.88;215937;1298;140415;-84
2023/01/24 09:37:09;;;;;;;;;;;;;;;;;;;;;
2023/01/24 09:43:33;;;;;;;42.80;20.90;;;;;;;1.12;100.00;103012.34;216107;1302;139259;-84
2023/01/24 09:49:33;;;;;;;36.70;18.60;;;;;;;1.19;100.00;103008.47;216034;1299;138829;-84
2023/01/24 10:07:29;;;;;;;;;;;;;;;;;;;;;
2023/01/24 10:13:53;;;;;;;37.30;17.90;;;;;;;1.22;100.00;103018.01;216352;1301;139243;-83
2023/01/24 10:19:59;;;;;;;34.00;16.60;;;;;;;1.34;100.00;103015.55;216388;1299;139428;-83
2023/01/24 10:25:59;;;;;;;38.20;17.50;;;;;;;1.46;100.00;103010.39;216835;1299;107460;-84
2023/01/24 10:31:59;;;;;;;;;;;;;;;;;;;;;
2023/01/24 10:38:02;;;;;;;33.40;17.30;;;;;;;1.53;100.00;102991.04;216799;1298;107975;-83
2023/01/24 10:44:05;;;;;;;33.00;15.10;;;;;;;1.57;100.00;102988.63;216252;1299;138717;-84
2023/01/24 10:49:58;;;;;;;;;;;;;;;;;;;;;
2023/01/24 10:56:23;;;;;;;29.50;15.60;;;;;;;1.48;100.00;102977.46;216736;1299;139634;-83
2023/01/24 11:02:24;;;;;;;36.20;17.40;;;;;;;1.62;100.00;102978.04;216285;1298;139313;-85
2023/01/24 11:08:31;;;;;;;36.70;18.20;;;;;;;1.74;100.00;102976.87;216721;1299;107346;-84
2023/01/24 11:14:35;;;;;;;34.50;16.60;;;;;;;1.73;100.00;102971.70;216432;1299;139007;-84
2023/01/24 11:20:42;;;;;;;33.00;15.90;;;;;;;1.70;100.00;102974.48;216157;1298;139163;-84
2023/01/24 11:26:55;;;;;;;;;;;;;;;;;;;;;
2023/01/24 11:32:55;;;;;;;;;;;;;;;;;;;;;
2023/01/24 11:39:18;;;;;;;32.00;16.20;;;;;;;1.80;100.00;102963.58;216652;1299;107916;-85
2023/01/24 11:45:22;;;;;;;33.40;15.50;;;;;;;1.76;100.00;102954.45;216834;1298;106977;-85
2023/01/24 11:51:26;;;;;;;29.50;14.60;;;;;;;1.81;100.00;102945.39;216046;1299;138971;-86
2023/01/24 11:57:40;;;;;;;;;;;;;;;;;;;;;
2023/01/24 12:03:54;;;;;;;;;;;;;;;;;;;;;
2023/01/24 12:10:01;;;;;;;;;;;;;;;;;;;;;
2023/01/24 12:16:08;;;;;;;;;;;;;;;;;;;;;
2023/01/24 12:22:11;;;;;;;28.30;14.10;;;;;;;2.03;100.00;102917.83;215967;1299;138524;-86
2023/01/24 12:28:17;;;;;;;25.80;13.60;;;;;;;2.03;100.00;102919.23;216732;1299;96152;-87
2023/01/24 12:34:26;;;;;;;26.40;13.70;;;;;;;1.99;100.00;102905.90;216224;1298;139658;-86
2023/01/24 12:40:28;;;;;;;28.90;14.50;;;;;;;1.96;100.00;102898.42;216377;1299;139337;-88
2023/01/24 12:46:50;;;;;;;28.10;13.60;;;;;;;1.96;100.00;102896.63;216890;1297;95992;-86
2023/01/24 12:53:12;;;;;;;25.80;12.80;;;;;;;1.97;100.00;102916.41;215979;1299;139677;-86
2023/01/24 12:59:29;;;;;;;24.70;12.10;;;;;;;1.98;100.00;102929.02;216222;1299;139541;-87
2023/01/24 13:05:39;;;;;;;21.70;11.20;;;;;;;1.94;100.00;102926.33;216753;1298;139171;-87
2023/01/24 13:12:01;;;;;;;28.50;14.60;;;;;;;1.92;100.00;102921.00;216253;1298;139304;-87
2023/01/24 13:18:05;;;;;;;26.20;12.60;;;;;;;1.89;100.00;102919.77;216794;1299;139257;-86
2023/01/24 13:24:12;;;;;;;28.00;13.80;;;;;;;1.84;100.00;102922.45;216180;1298;139115;-86
2023/01/24 13:42:58;;;;;;;23.10;10.90;;;;;;;1.79;100.00;102914.96;216016;1298;139726;-86
2023/01/24 13:48:57;;;;;;;;;;;;;;;;;;;;;
2023/01/24 13:55:15;;;;;;;;;;;;;;;;;;;;;
2023/01/24 14:01:20;;;;;;;;;;;;;;;;;;;;;
2023/01/24 14:07:20;;;;;;;27.80;13.40;;;;;;;1.77;100.00;102903.11;215261;1305;139275;-85
2023/01/24 14:13:13;;;;;;;;;;;;;;;;;;;;;
2023/01/24 14:19:39;;;;;;;23.10;11.80;;;;;;;1.73;100.00;102904.27;216057;1298;140020;-86
2023/01/24 14:25:29;;;;;;;;;;;;;;;;;;;;;
2023/01/24 14:31:39;;;;;;;28.30;14.00;;;;;;;1.73;100.00;102901.05;216254;1298;139447;-87
2023/01/24 14:37:31;;;;;;;;;;;;;;;;;;;;;
2023/01/24 14:43:33;;;;;;;27.90;13.10;;;;;;;1.65;100.00;102889.48;215983;1298;139607;-85
2023/01/24 14:49:34;;;;;;;29.70;15.70;;;;;;;1.53;100.00;102886.59;216225;1299;139199;-86
2023/01/24 14:55:35;;;;;;;33.80;15.20;;;;;;;1.51;100.00;102883.01;216677;1299;138986;-86
2023/01/24 15:01:37;;;;;;;32.90;15.20;;;;;;;1.48;100.00;102878.80;216250;1298;139819;-87
2023/01/24 15:13:48;;;;;;;;;;;;;;;;;;;;;
2023/01/24 15:19:53;;;;;;;;;;;;;;;;;;;;;
2023/01/24 15:25:51;;;;;;;;;;;;;;;;;;;;;
2023/01/24 15:31:55;;;;;;;;;;;;;;;;;;;;;
2023/01/24 15:37:47;;;;;;;34.00;17.30;;;;;;;1.35;100.00;102874.96;216732;1299;139017;-85
2023/01/24 15:51:05;;;;;;;35.30;17.90;;;;;;;1.27;100.00;102886.73;215270;1306;139637;-85
2023/01/24 15:56:11;;;;;;;40.30;20.80;;;;;;;1.27;100.00;102891.82;216707;1299;139640;-85
2023/01/24 16:08:12;;;;;;;;;;;;;;;;;;;;;
2023/01/24 16:20:20;;;;;;;36.60;17.40;;;;;;;1.19;100.00;102888.05;216093;1299;139588;-87
2023/01/24 16:26:22;;;;;;;38.10;19.20;;;;;;;1.19;100.00;102884.79;216725;1298;139908;-86
2023/01/24 16:32:22;;;;;;;43.40;20.10;;;;;;;1.18;100.00;102884.95;216080;1297;139380;-86
2023/01/24 16:38:23;;;;;;;41.20;21.30;;;;;;;1.20;100.00;102880.02;216586;1299;139388;-86
2023/01/24 16:44:24;;;;;;;38.00;20.00;;;;;;;1.20;100.00;102876.29;216362;1298;138916;-86
2023/01/24 16:50:17;;;;;;;;;;;;;;;;;;;;;
2023/01/24 16:56:26;;;;;;;43.10;23.00;;;;;;;1.22;100.00;102875.44;216695;1299;138953;-84
2023/01/24 17:02:27;;;;;;;36.40;18.30;;;;;;;1.19;100.00;102869.61;216125;1299;139922;-84
2023/01/24 17:08:28;;;;;;;43.90;22.80;;;;;;;1.12;100.00;102862.86;216667;1299;139515;-84
2023/01/24 17:14:30;;;;;;;38.20;18.70;;;;;;;1.13;100.00;102863.46;216598;1299;139331;-85
2023/01/24 17:20:30;;;;;;;41.10;22.50;;;;;;;1.15;100.00;102868.52;216028;1298;139180;-86
2023/01/24 17:26:32;;;;;;;43.90;22.60;;;;;;;1.10;100.00;102875.84;216666;1298;138768;-84
2023/01/24 17:32:33;;;;;;;52.80;23.60;;;;;;;1.08;100.00;102876.48;215970;1299;139086;-85
2023/01/24 17:38:34;;;;;;;48.90;24.20;;;;;;;1.10;100.00;102871.08;216507;1299;138923;-85
2023/01/24 17:44:36;;;;;;;48.50;24.50;;;;;;;1.04;100.00;102867.71;216548;1298;139136;-85
2023/01/24 17:50:47;;;;;;;;;;;;;;;;;;;;;
2023/01/24 17:56:36;;;;;;;;;;;;;;;;;;;;;
2023/01/24 18:03:10;;;;;;;;;;;;;;;;;;;;;
2023/01/24 18:08:34;;;;;;;49.30;23.70;;;;;;;0.98;100.00;102886.30;216451;1299;139326;-84
2023/01/24 18:14:40;;;;;;;53.90;27.10;;;;;;;1.07;100.00;102894.15;216473;1299;139958;-84
2023/01/24 18:20:35;;;;;;;;;;;;;;;;;;;;;
2023/01/24 18:26:38;;;;;;;62.90;27.10;;;;;;;1.05;100.00;102896.63;216527;1299;140395;-85
2023/01/24 18:32:39;;;;;;;235.00;95.00;;;;;;;1.06;100.00;102896.10;216080;1299;139385;-85
2023/01/24 18:38:33;;;;;;;;;;;;;;;;;;;;;
2023/01/24 18:44:42;;;;;;;74.70;31.10;;;;;;;1.09;100.00;102898.89;216344;1299;139455;-84
2023/01/24 18:50:43;;;;;;;73.20;30.60;;;;;;;1.09;100.00;102897.75;215933;1299;139319;-83
2023/01/24 18:56:37;;;;;;;;;;;;;;;;;;;;;
2023/01/24 19:02:46;;;;;;;48.60;23.10;;;;;;;1.02;100.00;102883.83;215996;1299;139345;-84
2023/01/24 19:08:49;;;;;;;52.00;24.80;;;;;;;1.06;100.00;102884.92;216740;1299;139214;-83
2023/01/24 19:14:41;;;;;;;52.90;27.00;;;;;;;0.95;100.00;102880.98;216558;1299;138890;-84
2023/01/24 19:20:35;;;;;;;53.90;27.20;;;;;;;0.93;100.00;102880.22;216146;1299;139176;-85
2023/01/24 19:26:39;;;;;;;45.80;23.50;;;;;;;0.91;100.00;102889.20;216541;1299;139028;-85
2023/01/24 19:32:40;;;;;;;40.90;21.70;;;;;;;0.95;100.00;102889.56;215772;1299;139213;-85
2023/01/24 19:38:42;;;;;;;62.70;26.80;;;;;;;0.97;100.00;102891.16;216635;1299;138745;-84
2023/01/24 19:44:40;;;;;;;;;;;;;;;;;;;;;
2023/01/24 19:50:43;;;;;;;49.30;26.40;;;;;;;0.91;100.00;102886.86;215581;1299;140459;-84
2023/01/24 19:56:44;;;;;;;46.10;24.90;;;;;;;0.92;100.00;102882.63;216561;1299;139380;-84
2023/01/24 20:03:10;;;;;;;44.80;22.60;;;;;;;0.95;100.00;102885.60;216181;1299;139236;-84
2023/01/24 20:08:37;;;;;;;58.40;26.90;;;;;;;0.98;100.00;102884.61;216610;1298;139154;-84
2023/01/24 20:14:30;;;;;;;65.30;28.60;;;;;;;0.99;100.00;102881.16;216658;1298;138923;-85
2023/01/24 20:20:38;;;;;;;;;;;;;;;;;;;;;
2023/01/24 20:26:33;;;;;;;;;;;;;;;;;;;;;
2023/01/24 20:32:22;;;;;;;62.50;28.20;;;;;;;1.07;100.00;102892.35;215978;1299;139843;-83
2023/01/24 20:38:01;;;;;;;84.40;36.10;;;;;;;0.93;100.00;102886.77;216692;1298;139059;-84
2023/01/24 20:43:37;;;;;;;106.80;43.00;;;;;;;0.92;100.00;102888.27;216092;1299;139075;-84
2023/01/24 20:49:12;;;;;;;78.70;34.00;;;;;;;0.96;100.00;102893.75;216173;1298;140336;-83
2023/01/24 20:54:33;;;;;;;79.20;37.40;;;;;;;1.03;100.00;102893.61;216633;1299;139271;-83
2023/01/24 21:00:35;;;;;;;73.80;35.00;;;;;;;1.05;100.00;102890.61;216121;1299;139949;-83
2023/01/24 21:06:18;;;;;;;;;;;;;;;;;;;;;
2023/01/24 21:12:20;;;;;;;58.20;27.50;;;;;;;1.07;100.00;102884.27;216148;1299;139773;-84
2023/01/24 21:18:21;;;;;;;65.40;29.90;;;;;;;1.11;100.00;102875.05;216590;1299;140111;-84
2023/01/24 21:24:16;;;;;;;76.70;36.00;;;;;;;1.01;100.00;102870.81;216421;1298;139687;-83
2023/01/24 21:30:18;;;;;;;73.10;33.70;;;;;;;1.04;100.00;102877.72;216047;1298;139269;-87
2023/01/24 21:36:08;;;;;;;109.00;48.70;;;;;;;1.00;100.00;102876.23;216764;1299;139156;-86
2023/01/24 21:42:22;;;;;;;58.60;28.50;;;;;;;1.00;100.00;102865.59;216279;1299;139326;-85
2023/01/24 21:49:04;;;;;;;55.40;27.80;;;;;;;1.02;100.00;102858.52;216743;1299;139666;-87
2023/01/24 22:00:25;;;;;;;66.50;30.40;;;;;;;0.97;100.00;102870.66;216187;1299;139683;-86
2023/01/24 22:06:25;;;;;;;59.70;29.00;;;;;;;1.02;100.00;102868.71;216636;1299;139180;-86
2023/01/24 22:12:27;;;;;;;52.10;27.10;;;;;;;1.02;100.00;102862.74;216252;1298;139259;-87
2023/01/24 22:18:28;;;;;;;62.20;29.40;;;;;;;1.02;100.00;102867.96;216745;1299;137889;-87
2023/01/24 22:24:35;;;;;;;55.50;28.50;;;;;;;1.00;100.00;102865.38;216828;1299;139136;-86
2023/01/24 22:30:36;;;;;;;56.30;27.60;;;;;;;1.00;100.00;102861.74;216119;1299;139658;-87
2023/01/24 22:36:38;;;;;;;51.60;25.70;;;;;;;1.02;100.00;102862.48;216653;1298;139690;-85
2023/01/24 22:48:40;;;;;;;62.00;30.10;;;;;;;1.03;100.00;102885.96;216701;1299;139159;-87
2023/01/24 22:54:41;;;;;;;59.70;28.60;;;;;;;1.00;100.00;102872.48;216735;1299;244586;-86
2023/01/24 23:00:42;;;;;;;63.90;32.00;;;;;;;1.03;100.00;102843.33;216227;1299;139342;-86
2023/01/24 23:06:47;;;;;;;61.10;31.50;;;;;;;1.06;100.00;102841.26;216794;1298;139108;-86
2023/01/24 23:21:26;;;;;;;62.20;29.40;;;;;;;1.11;100.00;102824.98;216863;1298;139432;-86
2023/01/24 23:24:25;;;;;;;67.90;33.10;;;;;;;1.12;100.00;102814.14;216471;1298;139286;-87
2023/01/24 23:30:47;;;;;;;64.30;32.30;;;;;;;1.10;100.00;102799.06;216156;1302;139667;-86
2023/01/24 23:36:38;;;;;;;;;;;;;;;;;;;;;
2023/01/24 23:42:48;;;;;;;;;;;;;;;;;;;;;
2023/01/24 23:48:47;;;;;;;;;;;;;;;;;;;;;
2023/01/24 23:54:32;;;;;;;;;;;;;;;;;;;;;
